createdAt,value
2023-03-16T00:00:32.937Z,92068.75
2023-03-16T00:02:04.764Z,92071.41
2023-03-16T00:03:36.731Z,92072.28
2023-03-16T00:05:09.506Z,92076.03
2023-03-16T00:06:41.071Z,92076.59
2023-03-16T00:08:12.851Z,92078.78
2023-03-16T00:09:44.475Z,92076.41
2023-03-16T00:11:15.928Z,92077.50
2023-03-16T00:12:47.458Z,92074.03
2023-03-16T00:14:19.042Z,92074.53
2023-03-16T00:15:53.240Z,92080.66
2023-03-16T00:17:26.868Z,92079.56
2023-03-16T00:18:59.359Z,92078.78
2023-03-16T00:20:30.798Z,92083.91
2023-03-16T00:22:02.475Z,92081.81
2023-03-16T00:23:36.137Z,92086.84
2023-03-16T00:25:08.625Z,92087.63
2023-03-16T00:26:40.097Z,92088.19
2023-03-16T00:28:14.110Z,92088.72
2023-03-16T00:29:47.188Z,92090.28
2023-03-16T00:31:18.758Z,92084.97
2023-03-16T00:32:50.300Z,92092.66
2023-03-16T00:34:23.046Z,92096.13
2023-03-16T00:36:02.380Z,92095.63
2023-03-16T00:37:34.262Z,92094.59
2023-03-16T00:39:07.022Z,92103.19
2023-03-16T00:40:38.615Z,92101.31
2023-03-16T00:42:10.798Z,92106.94
2023-03-16T00:43:42.538Z,92110.38
2023-03-16T00:45:14.154Z,92100.81
2023-03-16T00:46:45.783Z,92099.75
2023-03-16T00:48:18.522Z,92118.94
2023-03-16T00:49:50.543Z,92113.41
2023-03-16T00:51:23.136Z,92103.25
2023-03-16T00:52:54.699Z,92111.03
2023-03-16T00:54:27.157Z,92112.41
2023-03-16T00:55:58.667Z,92103.34
2023-03-16T00:57:30.503Z,92111.34
2023-03-16T00:59:02.040Z,92111.63
2023-03-16T01:00:34.036Z,92110.31
2023-03-16T01:02:06.285Z,92109.03
2023-03-16T01:03:37.858Z,92105.84
2023-03-16T01:05:09.701Z,92105.34
2023-03-16T01:06:41.926Z,92106.22
2023-03-16T01:08:13.673Z,92106.78
2023-03-16T01:09:45.245Z,92115.84
2023-03-16T01:11:18.071Z,92107.38
2023-03-16T01:12:49.518Z,92103.91
2023-03-16T01:14:21.316Z,92107.97
2023-03-16T01:15:52.803Z,92107.97
2023-03-16T01:17:24.354Z,92111.47
2023-03-16T01:18:57.618Z,92116.88
2023-03-16T01:20:29.385Z,92112.69
2023-03-16T01:22:02.182Z,92116.41
2023-03-16T01:23:33.845Z,92118.84
2023-03-16T01:25:05.812Z,92120.22
2023-03-16T01:26:37.315Z,92124.47
2023-03-16T01:28:08.906Z,92120.22
2023-03-16T01:29:40.405Z,92126.13
2023-03-16T01:31:12.477Z,92128.50
2023-03-16T01:32:44.148Z,92124.53
2023-03-16T01:34:18.561Z,92123.19
2023-03-16T01:35:56.866Z,92130.13
2023-03-16T01:37:28.376Z,92130.13
2023-03-16T01:39:00.417Z,92133.88
2023-03-16T01:40:32.194Z,92141.41
2023-03-16T01:42:03.791Z,92139.53
2023-03-16T01:43:37.609Z,92137.22
2023-03-16T01:45:30.153Z,92135.66
2023-03-16T01:47:01.668Z,92148.63
2023-03-16T01:48:38.201Z,92143.63
2023-03-16T01:50:09.773Z,92147.84
2023-03-16T01:51:46.033Z,92152.59
2023-03-16T01:53:17.484Z,92145.69
2023-03-16T01:54:50.492Z,92148.06
2023-03-16T01:56:23.846Z,92143.31
2023-03-16T01:57:55.730Z,92147.84
2023-03-16T01:59:28.399Z,92151.88
2023-03-16T02:00:59.950Z,92155.91
2023-03-16T02:02:32.165Z,92152.72
2023-03-16T02:04:27.076Z,92156.47
2023-03-16T02:06:06.945Z,92157.75
2023-03-16T02:07:40.773Z,92159.13
2023-03-16T02:09:12.689Z,92162.56
2023-03-16T02:10:45.311Z,92166.00
2023-03-16T02:12:19.833Z,92169.75
2023-03-16T02:13:52.791Z,92160.69
2023-03-16T02:15:24.293Z,92170.78
2023-03-16T02:16:56.362Z,92175.03
2023-03-16T02:18:28.872Z,92170.22
2023-03-16T02:20:14.118Z,92183.19
2023-03-16T02:21:45.747Z,92178.19
2023-03-16T02:23:21.157Z,92178.75
2023-03-16T02:24:52.970Z,92186.22
2023-03-16T02:26:45.000Z,92182.25
2023-03-16T02:28:22.537Z,92184.69
2023-03-16T02:30:01.417Z,92193.22
2023-03-16T02:31:34.404Z,92190.31
2023-03-16T02:33:06.224Z,92194.56
2023-03-16T02:34:37.840Z,92184.22
2023-03-16T02:36:09.493Z,92191.63
2023-03-16T02:37:41.903Z,92194.28
2023-03-16T02:39:13.410Z,92198.31
2023-03-16T02:40:44.945Z,92204.41
2023-03-16T02:42:17.208Z,92203.91
2023-03-16T02:43:52.289Z,92202.31
2023-03-16T02:45:25.352Z,92200.50
2023-03-16T02:46:58.835Z,92202.38
2023-03-16T02:48:32.629Z,92205.03
2023-03-16T02:50:06.751Z,92204.97
2023-03-16T02:51:38.775Z,92207.13
2023-03-16T02:53:10.377Z,92199.72
2023-03-16T02:54:42.942Z,92203.22
2023-03-16T02:56:14.581Z,92205.88
2023-03-16T02:57:46.070Z,92198.75
2023-03-16T02:59:18.181Z,92208.31
2023-03-16T03:00:50.246Z,92203.00
2023-03-16T03:02:22.239Z,92217.91
2023-03-16T03:03:54.255Z,92211.28
2023-03-16T03:05:25.886Z,92211.28
2023-03-16T03:07:04.119Z,92214.22
2023-03-16T03:08:35.856Z,92214.22
2023-03-16T03:10:07.878Z,92212.63
2023-03-16T03:11:39.522Z,92217.94
2023-03-16T03:13:12.407Z,92222.44
2023-03-16T03:14:44.495Z,92218.22
2023-03-16T03:16:19.847Z,92217.72
2023-03-16T03:18:00.121Z,92224.09
2023-03-16T03:19:36.708Z,92223.34
2023-03-16T03:21:15.989Z,92222.53
2023-03-16T03:23:00.459Z,92216.50
2023-03-16T03:24:33.186Z,92222.91
2023-03-16T03:26:04.689Z,92224.03
2023-03-16T03:27:36.204Z,92230.16
2023-03-16T03:29:08.002Z,92224.84
2023-03-16T03:30:39.813Z,92224.13
2023-03-16T03:32:13.366Z,92230.22
2023-03-16T03:33:45.595Z,92232.31
2023-03-16T03:35:17.675Z,92236.28
2023-03-16T03:36:49.290Z,92228.56
2023-03-16T03:38:21.595Z,92236.25
2023-03-16T03:39:59.609Z,92232.00
2023-03-16T03:41:33.544Z,92238.91
2023-03-16T03:43:05.951Z,92234.94
2023-03-16T03:44:38.539Z,92241.03
2023-03-16T03:46:10.532Z,92242.63
2023-03-16T03:47:42.672Z,92245.75
2023-03-16T03:49:14.341Z,92242.81
2023-03-16T03:50:46.602Z,92244.94
2023-03-16T03:52:18.075Z,92243.88
2023-03-16T03:53:49.947Z,92242.53
2023-03-16T03:55:21.503Z,92247.56
2023-03-16T03:56:53.610Z,92256.38
2023-03-16T03:58:25.262Z,92258.22
2023-03-16T03:59:57.016Z,92256.63
2023-03-16T04:01:28.959Z,92255.09
2023-03-16T04:03:01.018Z,92258.03
2023-03-16T04:04:32.798Z,92258.31
2023-03-16T04:06:04.374Z,92259.09
2023-03-16T04:07:36.722Z,92259.38
2023-03-16T04:09:08.389Z,92261.50
2023-03-16T04:10:39.880Z,92256.50
2023-03-16T04:12:11.596Z,92255.97
2023-03-16T04:13:43.085Z,92267.13
2023-03-16T04:15:15.140Z,92267.13
2023-03-16T04:16:47.213Z,92270.84
2023-03-16T04:18:18.705Z,92267.91
2023-03-16T04:19:50.296Z,92274.00
2023-03-16T04:21:22.085Z,92264.72
2023-03-16T04:22:58.806Z,92272.44
2023-03-16T04:24:30.548Z,92268.47
2023-03-16T04:26:02.873Z,92276.63
2023-03-16T04:27:36.645Z,92277.75
2023-03-16T04:29:08.345Z,92274.84
2023-03-16T04:30:40.250Z,92282.00
2023-03-16T04:32:11.929Z,92274.59
2023-03-16T04:33:43.548Z,92276.44
2023-03-16T04:35:15.795Z,92286.25
2023-03-16T04:36:47.348Z,92284.66
2023-03-16T04:38:19.059Z,92290.25
2023-03-16T04:39:50.674Z,92300.59
2023-03-16T04:41:22.402Z,92293.72
2023-03-16T04:42:54.132Z,92295.88
2023-03-16T04:44:25.978Z,92294.03
2023-03-16T04:45:59.010Z,92298.81
2023-03-16T04:47:30.944Z,92301.72
2023-03-16T04:49:02.478Z,92300.13
2023-03-16T04:50:34.038Z,92307.28
2023-03-16T04:52:05.701Z,92314.47
2023-03-16T04:53:37.230Z,92310.50
2023-03-16T04:55:08.901Z,92304.69
2023-03-16T04:56:41.777Z,92304.69
2023-03-16T04:58:16.091Z,92306.84
2023-03-16T04:59:47.997Z,92314.25
2023-03-16T05:01:19.537Z,92310.00
2023-03-16T05:02:51.957Z,92318.50
2023-03-16T05:04:25.090Z,92315.84
2023-03-16T05:05:57.122Z,92318.75
2023-03-16T05:07:29.195Z,92314.25
2023-03-16T05:09:11.066Z,92315.03
2023-03-16T05:10:45.514Z,92324.34
2023-03-16T05:12:17.497Z,92321.41
2023-03-16T05:13:53.556Z,92319.28
2023-03-16T05:15:25.715Z,92325.94
2023-03-16T05:16:58.140Z,92317.19
2023-03-16T05:18:29.997Z,92327.25
2023-03-16T05:20:01.546Z,92328.84
2023-03-16T05:21:34.404Z,92334.97
2023-03-16T05:23:08.299Z,92332.56
2023-03-16T05:24:40.223Z,92335.75
2023-03-16T05:26:13.266Z,92324.88
2023-03-16T05:27:45.444Z,92334.69
2023-03-16T05:29:17.000Z,92321.16
2023-03-16T05:30:48.553Z,92335.50
2023-03-16T05:32:20.176Z,92324.13
2023-03-16T05:33:52.304Z,92339.78
2023-03-16T05:35:24.583Z,92337.91
2023-03-16T05:36:56.462Z,92339.78
2023-03-16T05:38:28.434Z,92344.56
2023-03-16T05:39:59.964Z,92340.06
2023-03-16T05:41:31.605Z,92348.28
2023-03-16T05:43:04.571Z,92340.84
2023-03-16T05:44:36.082Z,92338.97
2023-03-16T05:46:07.775Z,92347.97
2023-03-16T05:47:39.342Z,92355.41
2023-03-16T05:49:13.024Z,92351.69
2023-03-16T05:50:44.514Z,92354.59
2023-03-16T05:52:16.176Z,92353.53
2023-03-16T05:53:48.529Z,92354.31
2023-03-16T05:55:20.294Z,92356.69
2023-03-16T05:56:57.219Z,92362.50
2023-03-16T05:58:36.330Z,92368.06
2023-03-16T06:00:20.616Z,92366.22
2023-03-16T06:01:56.427Z,92369.94
2023-03-16T06:03:34.150Z,92366.47
2023-03-16T06:05:14.203Z,92362.19
2023-03-16T06:07:52.837Z,92365.13
2023-03-16T06:17:21.930Z,92394.13
2023-03-16T06:18:54.006Z,92396.78
2023-03-16T06:20:26.083Z,92401.56
2023-03-16T06:21:58.160Z,92391.97
2023-03-16T06:23:29.672Z,92390.66
2023-03-16T06:25:15.547Z,92399.94
2023-03-16T06:26:52.466Z,92398.88
2023-03-16T06:34:16.577Z,92415.06
2023-03-16T06:35:51.875Z,92416.91
2023-03-16T06:37:23.539Z,92418.22
2023-03-16T06:38:55.248Z,92412.41
2023-03-16T06:40:27.416Z,92424.31
2023-03-16T06:41:59.565Z,92419.00
2023-03-16T06:43:31.727Z,92427.50
2023-03-16T06:45:03.720Z,92426.16
2023-03-16T06:46:36.676Z,92433.88
2023-03-16T06:48:12.673Z,92430.69
2023-03-16T06:49:50.025Z,92431.72
2023-03-16T06:51:26.670Z,92439.13
2023-03-16T06:53:02.515Z,92437.53
2023-03-16T06:57:12.160Z,92442.53
2023-03-16T06:58:44.145Z,92448.09
2023-03-16T07:00:16.421Z,92453.69
2023-03-16T07:01:48.360Z,92460.06
2023-03-16T07:03:20.206Z,92461.38
2023-03-16T07:04:54.477Z,92457.94
2023-03-16T07:06:26.081Z,92458.72
2023-03-16T07:07:57.961Z,92462.97
2023-03-16T07:09:29.446Z,92464.56
2023-03-16T07:11:01.511Z,92457.66
2023-03-16T07:12:42.559Z,92466.69
2023-03-16T07:14:19.686Z,92466.97
2023-03-16T07:21:08.728Z,92473.59
2023-03-16T07:30:40.465Z,92482.03
2023-03-16T07:32:18.284Z,92478.06
2023-03-16T07:39:33.186Z,92497.94
2023-03-16T07:41:12.645Z,92496.63
2023-03-16T07:42:44.509Z,92492.34
2023-03-16T07:44:16.274Z,92489.94
2023-03-16T07:45:48.883Z,92497.88
2023-03-16T07:47:21.225Z,92496.50
2023-03-16T07:48:53.273Z,92495.41
2023-03-16T07:50:25.212Z,92497.25
2023-03-16T07:51:56.850Z,92501.47
2023-03-16T07:53:32.966Z,92496.91
2023-03-16T07:55:12.474Z,92495.81
2023-03-16T08:02:27.183Z,92508.22
2023-03-16T08:04:12.049Z,92505.31
2023-03-16T08:05:44.031Z,92507.38
2023-03-16T08:07:16.053Z,92508.44
2023-03-16T08:08:48.472Z,92511.81
2023-03-16T08:10:20.189Z,92503.31
2023-03-16T08:11:52.248Z,92510.47
2023-03-16T08:13:24.281Z,92507.75
2023-03-16T08:14:56.093Z,92510.38
2023-03-16T08:16:28.463Z,92508.44
2023-03-16T08:18:03.490Z,92510.03
2023-03-16T08:19:35.049Z,92508.09
2023-03-16T08:21:06.936Z,92513.66
2023-03-16T08:22:38.600Z,92518.44
2023-03-16T08:24:11.062Z,92527.94
2023-03-16T08:25:42.900Z,92521.00
2023-03-16T08:27:16.294Z,92522.06
2023-03-16T08:28:48.024Z,92527.94
2023-03-16T08:30:22.883Z,92523.19
2023-03-16T08:31:57.750Z,92524.75
2023-03-16T08:33:29.459Z,92525.63
2023-03-16T08:35:01.478Z,92520.31
2023-03-16T08:36:33.624Z,92523.78
2023-03-16T08:38:05.268Z,92528.03
2023-03-16T08:39:36.897Z,92525.38
2023-03-16T08:41:08.609Z,92529.09
2023-03-16T08:42:40.227Z,92525.91
2023-03-16T08:44:13.123Z,92529.38
2023-03-16T08:45:45.313Z,92529.94
2023-03-16T08:47:17.116Z,92534.75
2023-03-16T08:48:48.852Z,92530.00
2023-03-16T08:50:21.216Z,92536.13
2023-03-16T08:51:54.564Z,92539.88
2023-03-16T08:53:26.125Z,92538.84
2023-03-16T08:55:03.304Z,92533.00
2023-03-16T08:56:35.674Z,92534.06
2023-03-16T08:58:08.238Z,92538.31
2023-03-16T08:59:39.871Z,92542.25
2023-03-16T09:01:12.726Z,92546.22
2023-03-16T09:02:44.442Z,92541.97
2023-03-16T09:04:16.218Z,92539.06
2023-03-16T09:05:48.132Z,92547.34
2023-03-16T09:07:20.660Z,92542.53
2023-03-16T09:08:53.128Z,92544.63
2023-03-16T09:10:25.808Z,92544.13
2023-03-16T09:11:57.753Z,92552.34
2023-03-16T09:13:29.461Z,92551.00
2023-03-16T09:15:01.459Z,92546.47
2023-03-16T09:16:33.041Z,92549.69
2023-03-16T09:18:06.269Z,92550.75
2023-03-16T09:19:50.605Z,92553.41
2023-03-16T09:21:24.401Z,92551.47
2023-03-16T09:22:56.685Z,92552.53
2023-03-16T09:24:28.340Z,92554.75
2023-03-16T09:26:00.686Z,92554.75
2023-03-16T09:27:33.294Z,92560.31
2023-03-16T09:29:07.068Z,92559.22
2023-03-16T09:30:38.630Z,92560.00
2023-03-16T09:32:10.386Z,92562.97
2023-03-16T09:33:41.890Z,92553.88
2023-03-16T09:35:13.530Z,92558.66
2023-03-16T09:36:45.214Z,92553.06
2023-03-16T09:38:18.241Z,92559.66
2023-03-16T09:39:50.630Z,92556.97
2023-03-16T09:41:31.755Z,92561.50
2023-03-16T09:43:22.398Z,92561.25
2023-03-16T09:44:54.179Z,92565.78
2023-03-16T09:46:34.361Z,92557.28
2023-03-16T09:48:06.800Z,92570.53
2023-03-16T09:49:40.768Z,92559.88
2023-03-16T09:51:34.869Z,92564.91
2023-03-16T09:53:12.462Z,92567.25
2023-03-16T09:54:53.417Z,92569.34
2023-03-16T09:56:29.824Z,92564.81
2023-03-16T09:58:02.365Z,92573.88
2023-03-16T09:59:33.953Z,92569.59
2023-03-16T10:01:14.517Z,92568.81
2023-03-16T10:02:49.416Z,92573.03
2023-03-16T10:04:25.381Z,92571.09
2023-03-16T10:06:01.406Z,92576.13
2023-03-16T10:07:52.635Z,92574.25
2023-03-16T10:09:24.428Z,92582.00
2023-03-16T10:10:59.310Z,92577.28
2023-03-16T10:12:32.737Z,92573.81
2023-03-16T10:14:22.978Z,92582.09
2023-03-16T10:15:54.700Z,92579.44
2023-03-16T10:17:27.120Z,92578.91
2023-03-16T10:19:02.870Z,92573.56
2023-03-16T10:20:34.660Z,92572.22
2023-03-16T10:22:12.250Z,92573.56
2023-03-16T10:23:46.620Z,92574.13
2023-03-16T10:25:36.893Z,92577.03
2023-03-16T10:27:08.538Z,92573.53
2023-03-16T10:28:45.990Z,92578.88
2023-03-16T10:30:27.418Z,92571.06
2023-03-16T10:36:57.111Z,92590.75
2023-03-16T10:38:38.852Z,92579.50
2023-03-16T10:40:12.925Z,92584.03
2023-03-16T10:41:46.093Z,92589.16
2023-03-16T10:43:18.281Z,92584.63
2023-03-16T10:44:50.011Z,92589.16
2023-03-16T10:46:22.594Z,92586.78
2023-03-16T10:47:54.823Z,92581.44
2023-03-16T10:49:27.880Z,92579.78
2023-03-16T10:51:00.116Z,92582.25
2023-03-16T10:52:31.683Z,92580.13
2023-03-16T10:54:06.355Z,92582.53
2023-03-16T10:55:41.757Z,92582.00
2023-03-16T10:57:26.173Z,92583.31
2023-03-16T10:58:58.032Z,92593.69
2023-03-16T11:00:31.339Z,92582.50
2023-03-16T11:02:04.249Z,92588.13
2023-03-16T11:03:39.178Z,92584.13
2023-03-16T11:05:16.132Z,92583.88
2023-03-16T11:06:48.877Z,92592.38
2023-03-16T11:08:22.169Z,92594.25
2023-03-16T11:09:54.972Z,92592.09
2023-03-16T11:11:35.216Z,92583.59
2023-03-16T11:13:10.608Z,92586.00
2023-03-16T11:14:45.529Z,92588.91
2023-03-16T11:16:26.183Z,92589.44
2023-03-16T11:17:57.818Z,92589.94
2023-03-16T11:19:30.191Z,92589.94
2023-03-16T11:21:09.592Z,92586.50
2023-03-16T11:22:41.082Z,92597.63
2023-03-16T11:24:15.913Z,92583.81
2023-03-16T11:25:48.775Z,92590.81
2023-03-16T11:27:33.202Z,92589.25
2023-03-16T11:29:40.312Z,92584.94
2023-03-16T11:31:14.853Z,92590.78
2023-03-16T11:32:51.240Z,92593.69
2023-03-16T11:34:25.812Z,92575.84
2023-03-16T11:36:00.609Z,92579.28
2023-03-16T11:37:40.901Z,92583.81
2023-03-16T11:39:13.070Z,92579.28
2023-03-16T11:40:49.073Z,92585.41
2023-03-16T11:42:26.777Z,92581.91
2023-03-16T11:44:04.926Z,92580.59
2023-03-16T11:45:54.969Z,92582.50
2023-03-16T11:47:26.711Z,92581.72
2023-03-16T11:49:13.861Z,92580.94
2023-03-16T11:50:57.743Z,92579.16
2023-03-16T11:52:47.313Z,92584.47
2023-03-16T11:54:30.490Z,92585.28
2023-03-16T11:56:02.436Z,92575.97
2023-03-16T11:57:39.043Z,92586.38
2023-03-16T11:59:16.714Z,92582.16
2023-03-16T12:00:48.322Z,92581.91
2023-03-16T12:02:20.588Z,92591.22
2023-03-16T12:03:55.317Z,92588.81
2023-03-16T12:05:32.558Z,92588.03
2023-03-16T12:07:16.310Z,92592.56
2023-03-16T12:08:56.492Z,92600.88
2023-03-16T12:10:28.141Z,92600.34
2023-03-16T12:12:05.250Z,92599.56
2023-03-16T12:13:42.832Z,92602.97
2023-03-16T12:15:24.375Z,92605.13
2023-03-16T12:17:01.272Z,92608.88
2023-03-16T12:18:44.071Z,92606.19
2023-03-16T12:20:20.360Z,92604.59
2023-03-16T12:21:55.535Z,92601.16
2023-03-16T12:23:41.908Z,92608.06
2023-03-16T12:25:17.381Z,92608.34
2023-03-16T12:26:49.752Z,92612.59
2023-03-16T12:28:22.832Z,92615.78
2023-03-16T12:29:58.486Z,92612.03
2023-03-16T12:31:51.797Z,92619.72
2023-03-16T12:33:38.355Z,92620.03
2023-03-16T12:35:30.661Z,92613.38
2023-03-16T12:37:19.672Z,92624.25
2023-03-16T12:39:18.217Z,92617.91
2023-03-16T12:40:55.478Z,92628.56
2023-03-16T12:42:38.194Z,92623.75
2023-03-16T12:44:12.630Z,92629.13
2023-03-16T12:45:59.739Z,92623.31
2023-03-16T12:48:10.230Z,92627.59
2023-03-16T12:49:42.534Z,92633.50
2023-03-16T12:51:14.066Z,92624.22
2023-03-16T12:52:46.809Z,92635.66
2023-03-16T12:54:22.063Z,92633.25
2023-03-16T12:55:53.729Z,92630.25
2023-03-16T12:57:27.184Z,92629.97
2023-03-16T12:59:00.383Z,92633.69
2023-03-16T13:00:38.349Z,92637.41
2023-03-16T13:02:16.099Z,92633.72
2023-03-16T13:03:48.290Z,92631.56
2023-03-16T13:05:28.862Z,92625.72
2023-03-16T13:07:08.095Z,92636.81
2023-03-16T13:08:51.342Z,92637.38
2023-03-16T13:10:33.516Z,92632.03
2023-03-16T13:17:20.382Z,92636.84
2023-03-16T13:18:59.532Z,92639.75
2023-03-16T13:20:32.740Z,92636.81
2023-03-16T13:22:24.819Z,92645.53
2023-03-16T13:23:58.793Z,92645.53
2023-03-16T13:25:31.036Z,92642.59
2023-03-16T13:27:08.853Z,92648.19
2023-03-16T13:28:48.561Z,92647.13
2023-03-16T13:30:22.623Z,92647.94
2023-03-16T13:31:58.795Z,92653.50
2023-03-16T13:33:32.943Z,92650.53
2023-03-16T13:35:05.373Z,92655.63
2023-03-16T13:36:38.219Z,92653.25
2023-03-16T13:38:18.887Z,92655.06
2023-03-16T13:39:55.688Z,92649.72
2023-03-16T13:41:27.336Z,92651.88
2023-03-16T13:42:59.157Z,92656.91
2023-03-16T13:44:31.782Z,92653.44
2023-03-16T13:46:13.484Z,92653.44
2023-03-16T13:47:46.129Z,92662.25
2023-03-16T13:49:18.357Z,92659.00
2023-03-16T13:50:53.626Z,92660.59
2023-03-16T13:52:31.907Z,92659.28
2023-03-16T13:54:16.479Z,92659.00
2023-03-16T13:55:48.140Z,92659.84
2023-03-16T13:57:24.363Z,92663.34
2023-03-16T13:58:57.799Z,92656.22
2023-03-16T14:00:34.914Z,92669.56
2023-03-16T14:02:10.224Z,92670.38
2023-03-16T14:03:43.589Z,92667.97
2023-03-16T14:05:20.248Z,92667.66
2023-03-16T14:06:52.938Z,92675.41
2023-03-16T14:08:33.930Z,92669.56
2023-03-16T14:10:07.646Z,92675.97
2023-03-16T14:11:39.317Z,92677.00
2023-03-16T14:13:36.815Z,92673.50
2023-03-16T14:15:10.603Z,92679.34
2023-03-16T14:16:43.282Z,92669.25
2023-03-16T14:18:20.241Z,92668.22
2023-03-16T14:19:53.643Z,92683.16
2023-03-16T14:21:27.235Z,92681.03
2023-03-16T14:23:04.263Z,92685.88
2023-03-16T14:24:41.528Z,92692.25
2023-03-16T14:26:15.380Z,92689.88
2023-03-16T14:27:47.673Z,92685.34
2023-03-16T14:29:22.936Z,92692.81
2023-03-16T14:30:55.866Z,92690.94
2023-03-16T14:32:29.495Z,92684.81
2023-03-16T14:34:02.291Z,92688.81
2023-03-16T14:35:49.464Z,92693.63
2023-03-16T14:37:27.195Z,92692.81
2023-03-16T14:44:43.870Z,92703.47
2023-03-16T14:46:16.907Z,92697.88
2023-03-16T14:47:48.555Z,92697.06
2023-03-16T14:49:21.473Z,92694.91
2023-03-16T14:50:54.743Z,92705.84
2023-03-16T14:52:31.800Z,92703.97
2023-03-16T14:54:07.418Z,92707.19
2023-03-16T14:55:39.593Z,92706.66
2023-03-16T14:57:15.944Z,92709.59
2023-03-16T14:58:47.594Z,92717.84
2023-03-16T15:00:20.230Z,92708.78
2023-03-16T15:01:52.015Z,92713.84
2023-03-16T15:03:24.455Z,92713.84
2023-03-16T15:04:56.107Z,92713.59
2023-03-16T15:06:27.845Z,92721.56
2023-03-16T15:07:59.402Z,92715.47
2023-03-16T15:09:36.773Z,92720.28
2023-03-16T15:11:08.804Z,92716.53
2023-03-16T15:12:41.607Z,92724.00
2023-03-16T15:14:35.590Z,92722.41
2023-03-16T15:16:07.977Z,92733.34
2023-03-16T15:17:39.939Z,92732.56
2023-03-16T15:19:12.011Z,92732.63
2023-03-16T15:20:43.885Z,92739.56
2023-03-16T15:22:16.116Z,92742.50
2023-03-16T15:23:47.829Z,92741.75
2023-03-16T15:25:21.178Z,92750.25
2023-03-16T15:26:53.295Z,92742.28
2023-03-16T15:28:25.299Z,92744.97
2023-03-16T15:29:57.654Z,92746.81
2023-03-16T15:31:29.613Z,92744.97
2023-03-16T15:33:01.575Z,92742.56
2023-03-16T15:34:33.217Z,92753.47
2023-03-16T15:36:18.245Z,92760.13
2023-03-16T15:37:50.302Z,92758.56
2023-03-16T15:39:22.705Z,92758.56
2023-03-16T15:40:54.368Z,92754.78
2023-03-16T15:42:27.484Z,92754.78
2023-03-16T15:44:01.112Z,92757.75
2023-03-16T15:45:33.114Z,92754.28
2023-03-16T15:47:05.308Z,92759.06
2023-03-16T15:48:37.048Z,92765.47
2023-03-16T15:50:10.572Z,92765.19
2023-03-16T15:51:42.474Z,92762.53
2023-03-16T15:53:30.621Z,92769.47
2023-03-16T15:55:20.455Z,92773.44
2023-03-16T15:59:26.274Z,92778.25
2023-03-16T16:01:40.111Z,92780.09
2023-03-16T16:03:25.536Z,92786.22
2023-03-16T16:04:57.779Z,92787.53
2023-03-16T16:06:33.203Z,92786.47
2023-03-16T16:08:06.597Z,92787.81
2023-03-16T16:09:38.591Z,92789.66
2023-03-16T16:11:13.193Z,92802.16
2023-03-16T16:12:51.252Z,92801.63
2023-03-16T16:14:24.878Z,92805.06
2023-03-16T16:15:56.780Z,92803.47
2023-03-16T16:17:47.997Z,92799.75
2023-03-16T16:19:21.646Z,92807.19
2023-03-16T16:20:54.120Z,92811.72
2023-03-16T16:22:26.888Z,92808.28
2023-03-16T16:23:58.496Z,92808.28
2023-03-16T16:25:35.389Z,92810.94
2023-03-16T16:27:10.855Z,92817.03
2023-03-16T16:28:42.472Z,92824.22
2023-03-16T16:30:29.870Z,92812.28
2023-03-16T16:32:02.258Z,92815.19
2023-03-16T16:33:34.449Z,92827.94
2023-03-16T16:35:12.608Z,92811.72
2023-03-16T16:36:44.459Z,92825.81
2023-03-16T16:38:15.920Z,92828.47
2023-03-16T16:39:48.231Z,92828.47
2023-03-16T16:41:30.909Z,92831.13
2023-03-16T16:43:06.648Z,92835.38
2023-03-16T16:44:42.936Z,92842.03
2023-03-16T16:46:18.730Z,92842.28
2023-03-16T16:47:53.761Z,92840.44
2023-03-16T16:49:26.681Z,92842.03
2023-03-16T16:50:58.762Z,92844.41
2023-03-16T16:52:30.974Z,92848.13
2023-03-16T16:54:05.112Z,92848.94
2023-03-16T16:55:36.828Z,92843.88
2023-03-16T16:57:11.704Z,92848.69
2023-03-16T16:58:43.609Z,92848.13
2023-03-16T17:00:20.016Z,92844.94
2023-03-16T17:01:52.259Z,92845.47
2023-03-16T17:03:25.122Z,92857.41
2023-03-16T17:04:57.530Z,92852.41
2023-03-16T17:06:29.239Z,92852.66
2023-03-16T17:08:04.386Z,92852.91
2023-03-16T17:09:36.855Z,92856.59
2023-03-16T17:11:12.191Z,92862.22
2023-03-16T17:12:43.967Z,92863.28
2023-03-16T17:14:16.364Z,92856.09
2023-03-16T17:15:48.406Z,92862.22
2023-03-16T17:17:20.404Z,92857.41
2023-03-16T17:18:53.183Z,92859.53
2023-03-16T17:20:27.368Z,92860.34
2023-03-16T17:22:00.381Z,92863.53
2023-03-16T17:25:30.481Z,92865.94
2023-03-16T17:27:20.621Z,92871.75
2023-03-16T17:29:00.852Z,92870.72
2023-03-16T17:30:32.889Z,92877.88
2023-03-16T17:32:05.045Z,92871.25
2023-03-16T17:33:36.590Z,92870.97
2023-03-16T17:35:15.566Z,92873.09
2023-03-16T17:36:47.287Z,92873.34
2023-03-16T17:38:19.728Z,92874.16
2023-03-16T17:39:52.750Z,92879.47
2023-03-16T17:41:25.475Z,92878.97
2023-03-16T17:42:57.064Z,92879.72
2023-03-16T17:44:31.345Z,92886.63
2023-03-16T17:46:06.818Z,92885.03
2023-03-16T17:47:45.542Z,92885.31
2023-03-16T17:49:22.995Z,92886.38
2023-03-16T17:50:58.818Z,92888.22
2023-03-16T17:52:31.962Z,92884.28
2023-03-16T17:54:05.569Z,92887.97
2023-03-16T17:55:38.908Z,92886.94
2023-03-16T17:57:13.739Z,92896.75
2023-03-16T17:58:49.391Z,92891.69
2023-03-16T18:00:21.836Z,92893.00
2023-03-16T18:01:53.488Z,92894.63
2023-03-16T18:03:25.911Z,92890.09
2023-03-16T18:04:59.916Z,92890.91
2023-03-16T18:06:31.658Z,92893.81
2023-03-16T18:08:20.917Z,92893.28
2023-03-16T18:09:53.221Z,92894.88
2023-03-16T18:11:35.936Z,92891.97
2023-03-16T18:13:08.964Z,92893.28
2023-03-16T18:14:41.842Z,92896.72
2023-03-16T18:16:23.580Z,92899.66
2023-03-16T18:17:55.852Z,92902.84
2023-03-16T18:19:32.979Z,92903.94
2023-03-16T18:21:06.287Z,92912.94
2023-03-16T18:22:38.641Z,92909.25
2023-03-16T18:24:14.458Z,92905.53
2023-03-16T18:25:46.350Z,92911.91
2023-03-16T18:27:18.166Z,92906.59
2023-03-16T18:28:50.646Z,92910.28
2023-03-16T18:30:22.204Z,92905.78
2023-03-16T18:31:53.821Z,92908.16
2023-03-16T18:33:25.443Z,92905.75
2023-03-16T18:34:57.321Z,92902.31
2023-03-16T18:36:29.509Z,92905.22
2023-03-16T18:38:01.131Z,92904.97
2023-03-16T18:39:38.237Z,92911.34
2023-03-16T18:41:20.235Z,92917.97
2023-03-16T18:42:59.163Z,92915.03
2023-03-16T18:44:31.965Z,92918.47
2023-03-16T18:46:08.247Z,92918.47
2023-03-16T18:47:43.336Z,92916.88
2023-03-16T18:49:26.868Z,92919.78
2023-03-16T18:50:59.179Z,92917.94
2023-03-16T18:52:33.628Z,92924.81
2023-03-16T18:54:09.834Z,92919.75
2023-03-16T18:55:45.275Z,92915.00
2023-03-16T18:57:28.303Z,92922.66
2023-03-16T18:59:02.771Z,92918.44
2023-03-16T19:00:35.361Z,92915.50
2023-03-16T19:02:10.862Z,92912.84
2023-03-16T19:03:43.307Z,92921.88
2023-03-16T19:05:15.844Z,92918.69
2023-03-16T19:06:47.461Z,92913.91
2023-03-16T19:08:19.190Z,92915.25
2023-03-16T19:09:51.189Z,92917.91
2023-03-16T19:11:22.958Z,92919.50
2023-03-16T19:12:54.996Z,92915.75
2023-03-16T19:14:33.122Z,92923.19
2023-03-16T19:16:08.443Z,92920.53
2023-03-16T19:17:40.099Z,92922.13
2023-03-16T19:19:12.280Z,92922.38
2023-03-16T19:20:44.741Z,92921.31
2023-03-16T19:22:17.190Z,92921.63
2023-03-16T19:23:56.791Z,92920.00
2023-03-16T19:25:29.734Z,92922.91
2023-03-16T19:27:02.369Z,92924.53
2023-03-16T19:28:39.171Z,92920.53
2023-03-16T19:30:31.890Z,92924.78
2023-03-16T19:32:06.194Z,92927.94
2023-03-16T19:33:39.576Z,92927.94